createdAt,value
2019-06-18T00:07:41.231Z,55.6
2019-06-18T00:24:31.010Z,56.0
2019-06-18T00:41:19.870Z,56.4
2019-06-18T00:58:09.612Z,56.8
2019-06-18T01:14:59.326Z,57.2
2019-06-18T01:31:48.852Z,57.6
2019-06-18T01:48:38.309Z,58.0
2019-06-18T02:05:27.752Z,58.4
2019-06-18T02:22:17.577Z,57.6
2019-06-18T02:39:07.792Z,57.2
2019-06-18T02:55:58.280Z,56.4
2019-06-18T03:12:48.685Z,56.4
2019-06-18T03:29:39.190Z,56.8
2019-06-18T03:46:29.855Z,56.8
2019-06-18T04:03:23.152Z,56.8
2019-06-18T04:20:13.322Z,56.8
2019-06-18T04:37:03.627Z,56.8
2019-06-18T04:53:53.546Z,56.4
2019-06-18T05:10:44.001Z,56.4
2019-06-18T05:27:35.117Z,56.4
2019-06-18T05:44:26.547Z,56.0
2019-06-18T06:01:18.840Z,56.0
2019-06-18T06:18:12.535Z,55.2
2019-06-18T06:35:03.440Z,54.4
2019-06-18T06:51:58.405Z,54.8
2019-06-18T07:08:49.176Z,55.2
2019-06-18T07:25:43.532Z,55.2
2019-06-18T07:42:36.662Z,54.8
2019-06-18T07:59:32.894Z,54.8
2019-06-18T08:16:25.106Z,55.2
2019-06-18T08:33:19.366Z,55.2
2019-06-18T08:50:13.915Z,55.2
2019-06-18T09:07:08.502Z,55.2
2019-06-18T09:24:04.075Z,55.2
2019-06-18T09:40:57.796Z,54.8
2019-06-18T09:57:53.344Z,54.4
2019-06-18T10:14:47.677Z,54.4
2019-06-18T10:31:43.766Z,53.6
2019-06-18T10:48:38.128Z,53.6
2019-06-18T11:05:33.216Z,53.2
2019-06-18T11:22:28.908Z,52.8
2019-06-18T11:39:23.809Z,52.4
2019-06-18T11:56:19.311Z,52.0
2019-06-18T12:13:14.903Z,52.0
2019-06-18T12:30:13.186Z,52.0
2019-06-18T12:47:06.075Z,52.0
2019-06-18T13:04:02.579Z,52.0
2019-06-18T13:20:57.489Z,52.0
2019-06-18T13:37:54.953Z,51.6
2019-06-18T13:54:48.960Z,51.2
2019-06-18T14:11:44.554Z,51.2
2019-06-18T14:28:40.048Z,51.2
2019-06-18T14:45:37.570Z,52.0
2019-06-18T15:02:33.419Z,52.4
2019-06-18T15:19:26.805Z,52.4
2019-06-18T15:36:22.471Z,52.4
2019-06-18T15:53:18.285Z,52.4
2019-06-18T16:10:13.659Z,52.8
2019-06-18T16:27:09.324Z,52.8
2019-06-18T16:44:04.842Z,52.8
2019-06-18T17:01:03.215Z,52.8
2019-06-18T17:17:55.495Z,53.2
2019-06-18T17:34:50.514Z,53.2
2019-06-18T17:51:45.611Z,53.2
2019-06-18T18:08:42.872Z,53.2
2019-06-18T18:25:35.820Z,53.2
2019-06-18T18:42:33.465Z,53.2
2019-06-18T18:59:25.918Z,53.2
2019-06-18T19:16:23.127Z,53.2
2019-06-18T19:33:16.075Z,53.6
2019-06-18T19:46:47.973Z,55.6
2019-06-18T20:03:42.968Z,56.0
2019-06-18T20:20:37.698Z,57.2
2019-06-18T20:37:32.569Z,57.6
2019-06-18T20:54:26.939Z,58.0
2019-06-18T21:11:23.382Z,58.8
2019-06-18T21:45:13.135Z,60.0
2019-06-18T22:02:03.310Z,60.4
2019-06-18T22:18:57.725Z,59.6
2019-06-18T22:35:52.385Z,60.4
2019-06-18T22:52:44.445Z,60.8
2019-06-18T23:09:37.272Z,60.8
2019-06-18T23:26:32.852Z,61.6
2019-06-18T23:43:23.443Z,61.2
